sensor_id;sensor_type;location;lat;lon;timestamp;temperature;humidity
8595;DHT22;4335;48.860;9.198;2022-09-03T00:00:12;17.50;99.90
8595;DHT22;4335;48.860;9.198;2022-09-03T00:02:41;17.50;99.90
8595;DHT22;4335;48.860;9.198;2022-09-03T00:05:16;17.50;99.90
8595;DHT22;4335;48.860;9.198;2022-09-03T00:07:51;17.50;99.90
8595;DHT22;4335;48.860;9.198;2022-09-03T00:10:25;17.50;99.90
8595;DHT22;4335;48.860;9.198;2022-09-03T00:12:58;17.50;99.90
8595;DHT22;4335;48.860;9.198;2022-09-03T00:15:29;17.60;99.90
8595;DHT22;4335;48.860;9.198;2022-09-03T00:18:03;17.50;99.90
8595;DHT22;4335;48.860;9.198;2022-09-03T00:20:35;17.60;99.90
8595;DHT22;4335;48.860;9.198;2022-09-03T00:23:15;17.50;99.90
8595;DHT22;4335;48.860;9.198;2022-09-03T00:25:49;17.50;99.90
8595;DHT22;4335;48.860;9.198;2022-09-03T00:28:25;17.50;99.90
8595;DHT22;4335;48.860;9.198;2022-09-03T00:31:06;17.50;99.90
8595;DHT22;4335;48.860;9.198;2022-09-03T00:33:40;17.60;99.90
8595;DHT22;4335;48.860;9.198;2022-09-03T00:36:15;17.50;99.90
8595;DHT22;4335;48.860;9.198;2022-09-03T00:38:49;17.50;99.90
8595;DHT22;4335;48.860;9.198;2022-09-03T00:41:29;17.50;99.90
8595;DHT22;4335;48.860;9.198;2022-09-03T00:44:19;17.50;99.90
8595;DHT22;4335;48.860;9.198;2022-09-03T00:46:55;17.50;99.90
8595;DHT22;4335;48.860;9.198;2022-09-03T00:49:31;17.50;99.90
8595;DHT22;4335;48.860;9.198;2022-09-03T00:52:07;17.50;99.90
8595;DHT22;4335;48.860;9.198;2022-09-03T00:54:45;17.50;99.90
8595;DHT22;4335;48.860;9.198;2022-09-03T00:57:33;17.60;99.90
8595;DHT22;4335;48.860;9.198;2022-09-03T01:00:07;17.50;99.90
8595;DHT22;4335;48.860;9.198;2022-09-03T01:02:56;17.50;99.90
8595;DHT22;4335;48.860;9.198;2022-09-03T01:05:47;17.50;99.90
8595;DHT22;4335;48.860;9.198;2022-09-03T01:08:35;17.60;99.90
8595;DHT22;4335;48.860;9.198;2022-09-03T01:11:18;17.60;99.90
8595;DHT22;4335;48.860;9.198;2022-09-03T01:13:59;17.60;99.90
8595;DHT22;4335;48.860;9.198;2022-09-03T01:16:33;17.60;99.90
8595;DHT22;4335;48.860;9.198;2022-09-03T01:19:31;17.60;99.90
8595;DHT22;4335;48.860;9.198;2022-09-03T01:22:17;17.60;99.90
8595;DHT22;4335;48.860;9.198;2022-09-03T01:25:02;17.60;99.90
8595;DHT22;4335;48.860;9.198;2022-09-03T01:27:44;17.60;99.90
8595;DHT22;4335;48.860;9.198;2022-09-03T01:30:17;17.60;99.90
8595;DHT22;4335;48.860;9.198;2022-09-03T01:32:51;17.60;99.90
8595;DHT22;4335;48.860;9.198;2022-09-03T01:35:28;17.60;99.90
8595;DHT22;4335;48.860;9.198;2022-09-03T01:38:15;17.60;99.90
8595;DHT22;4335;48.860;9.198;2022-09-03T01:40:53;17.60;99.90
8595;DHT22;4335;48.860;9.198;2022-09-03T01:43:33;17.60;99.90
8595;DHT22;4335;48.860;9.198;2022-09-03T01:46:11;17.60;99.90
8595;DHT22;4335;48.860;9.198;2022-09-03T01:48:45;17.60;99.90
8595;DHT22;4335;48.860;9.198;2022-09-03T01:51:20;17.60;99.90
8595;DHT22;4335;48.860;9.198;2022-09-03T01:57:22;17.50;99.90
8595;DHT22;4335;48.860;9.198;2022-09-03T01:59:55;17.50;99.90
8595;DHT22;4335;48.860;9.198;2022-09-03T02:02:29;17.50;99.90
8595;DHT22;4335;48.860;9.198;2022-09-03T02:05:00;17.50;99.90
8595;DHT22;4335;48.860;9.198;2022-09-03T02:07:34;17.50;99.90
8595;DHT22;4335;48.860;9.198;2022-09-03T02:10:03;17.60;99.90
8595;DHT22;4335;48.860;9.198;2022-09-03T02:12:33;17.60;99.90
8595;DHT22;4335;48.860;9.198;2022-09-03T02:15:05;17.60;99.90
8595;DHT22;4335;48.860;9.198;2022-09-03T02:17:38;17.60;99.90
8595;DHT22;4335;48.860;9.198;2022-09-03T02:20:11;17.60;99.90
8595;DHT22;4335;48.860;9.198;2022-09-03T02:22:39;17.60;99.90
8595;DHT22;4335;48.860;9.198;2022-09-03T02:25:08;17.60;99.90
8595;DHT22;4335;48.860;9.198;2022-09-03T02:27:36;17.60;99.90
8595;DHT22;4335;48.860;9.198;2022-09-03T02:30:05;17.60;99.90
8595;DHT22;4335;48.860;9.198;2022-09-03T02:32:33;17.60;99.90
8595;DHT22;4335;48.860;9.198;2022-09-03T02:35:02;17.60;99.90
8595;DHT22;4335;48.860;9.198;2022-09-03T02:37:36;17.60;99.90
8595;DHT22;4335;48.860;9.198;2022-09-03T02:40:04;17.60;99.90
8595;DHT22;4335;48.860;9.198;2022-09-03T02:42:35;17.60;99.90
8595;DHT22;4335;48.860;9.198;2022-09-03T02:45:09;17.70;99.90
8595;DHT22;4335;48.860;9.198;2022-09-03T02:47:42;17.60;99.90
8595;DHT22;4335;48.860;9.198;2022-09-03T02:50:11;17.50;99.90
8595;DHT22;4335;48.860;9.198;2022-09-03T02:52:39;17.60;99.90
8595;DHT22;4335;48.860;9.198;2022-09-03T02:55:07;17.50;99.90
8595;DHT22;4335;48.860;9.198;2022-09-03T02:57:35;17.50;99.90
8595;DHT22;4335;48.860;9.198;2022-09-03T03:00:04;17.50;99.90
8595;DHT22;4335;48.860;9.198;2022-09-03T03:02:31;17.40;99.90
8595;DHT22;4335;48.860;9.198;2022-09-03T03:04:59;17.40;99.90
8595;DHT22;4335;48.860;9.198;2022-09-03T03:07:31;17.40;99.90
8595;DHT22;4335;48.860;9.198;2022-09-03T03:10:01;17.40;99.90
8595;DHT22;4335;48.860;9.198;2022-09-03T03:12:28;17.40;99.90
8595;DHT22;4335;48.860;9.198;2022-09-03T03:14:56;17.40;99.90
8595;DHT22;4335;48.860;9.198;2022-09-03T03:17:23;17.40;99.90
8595;DHT22;4335;48.860;9.198;2022-09-03T03:19:56;17.40;99.90
8595;DHT22;4335;48.860;9.198;2022-09-03T03:22:23;17.40;99.90
8595;DHT22;4335;48.860;9.198;2022-09-03T03:24:52;17.40;99.90
8595;DHT22;4335;48.860;9.198;2022-09-03T03:27:21;17.30;99.90
8595;DHT22;4335;48.860;9.198;2022-09-03T03:29:52;17.30;99.90
8595;DHT22;4335;48.860;9.198;2022-09-03T03:32:21;17.30;99.90
8595;DHT22;4335;48.860;9.198;2022-09-03T03:34:49;17.40;99.90
8595;DHT22;4335;48.860;9.198;2022-09-03T03:37:18;17.40;99.90
8595;DHT22;4335;48.860;9.198;2022-09-03T03:39:46;17.40;99.90
8595;DHT22;4335;48.860;9.198;2022-09-03T03:42:15;17.40;99.90
8595;DHT22;4335;48.860;9.198;2022-09-03T03:44:42;17.40;99.90
8595;DHT22;4335;48.860;9.198;2022-09-03T03:47:09;17.50;99.90
8595;DHT22;4335;48.860;9.198;2022-09-03T03:49:37;17.40;99.90
8595;DHT22;4335;48.860;9.198;2022-09-03T03:52:05;17.40;99.90
8595;DHT22;4335;48.860;9.198;2022-09-03T03:54:32;17.40;99.90
8595;DHT22;4335;48.860;9.198;2022-09-03T03:57:00;17.40;99.90
8595;DHT22;4335;48.860;9.198;2022-09-03T03:59:35;17.40;99.90
8595;DHT22;4335;48.860;9.198;2022-09-03T04:02:02;17.50;99.90
8595;DHT22;4335;48.860;9.198;2022-09-03T04:04:33;17.50;99.90
8595;DHT22;4335;48.860;9.198;2022-09-03T04:07:00;17.50;99.90
8595;DHT22;4335;48.860;9.198;2022-09-03T04:09:33;17.50;99.90
8595;DHT22;4335;48.860;9.198;2022-09-03T04:12:04;17.40;99.90
8595;DHT22;4335;48.860;9.198;2022-09-03T04:14:35;17.40;99.90
8595;DHT22;4335;48.860;9.198;2022-09-03T04:17:09;17.40;99.90
8595;DHT22;4335;48.860;9.198;2022-09-03T04:19:36;17.40;99.90
8595;DHT22;4335;48.860;9.198;2022-09-03T04:22:06;17.40;99.90
8595;DHT22;4335;48.860;9.198;2022-09-03T04:24:34;17.30;99.90
8595;DHT22;4335;48.860;9.198;2022-09-03T04:27:07;17.30;99.90
8595;DHT22;4335;48.860;9.198;2022-09-03T04:29:36;17.30;99.90
8595;DHT22;4335;48.860;9.198;2022-09-03T04:32:09;17.30;99.90
8595;DHT22;4335;48.860;9.198;2022-09-03T04:34:57;17.20;99.90
8595;DHT22;4335;48.860;9.198;2022-09-03T04:37:27;17.30;99.90
8595;DHT22;4335;48.860;9.198;2022-09-03T04:39:54;17.30;99.90
8595;DHT22;4335;48.860;9.198;2022-09-03T04:42:22;17.30;99.90
8595;DHT22;4335;48.860;9.198;2022-09-03T04:44:51;17.30;99.90
8595;DHT22;4335;48.860;9.198;2022-09-03T04:47:18;17.20;99.90
8595;DHT22;4335;48.860;9.198;2022-09-03T04:49:48;17.20;99.90
8595;DHT22;4335;48.860;9.198;2022-09-03T04:52:16;17.20;99.90
8595;DHT22;4335;48.860;9.198;2022-09-03T04:54:44;17.20;99.90
8595;DHT22;4335;48.860;9.198;2022-09-03T04:57:14;17.20;99.90
8595;DHT22;4335;48.860;9.198;2022-09-03T04:59:41;17.20;99.90
8595;DHT22;4335;48.860;9.198;2022-09-03T05:02:11;17.20;99.90
8595;DHT22;4335;48.860;9.198;2022-09-03T05:04:45;17.20;99.90
8595;DHT22;4335;48.860;9.198;2022-09-03T05:07:13;17.30;99.90
8595;DHT22;4335;48.860;9.198;2022-09-03T05:09:43;17.40;99.90
8595;DHT22;4335;48.860;9.198;2022-09-03T05:12:11;17.40;99.90
8595;DHT22;4335;48.860;9.198;2022-09-03T05:14:38;17.40;99.90
8595;DHT22;4335;48.860;9.198;2022-09-03T05:17:10;17.50;99.90
8595;DHT22;4335;48.860;9.198;2022-09-03T05:19:37;17.50;99.90
8595;DHT22;4335;48.860;9.198;2022-09-03T05:22:04;17.50;99.90
8595;DHT22;4335;48.860;9.198;2022-09-03T05:24:32;17.60;99.90
8595;DHT22;4335;48.860;9.198;2022-09-03T05:27:06;17.60;99.90
8595;DHT22;4335;48.860;9.198;2022-09-03T05:29:33;17.50;99.90
8595;DHT22;4335;48.860;9.198;2022-09-03T05:32:04;17.50;99.90
8595;DHT22;4335;48.860;9.198;2022-09-03T05:34:33;17.50;99.90
8595;DHT22;4335;48.860;9.198;2022-09-03T05:37:06;17.50;99.90
8595;DHT22;4335;48.860;9.198;2022-09-03T05:39:34;17.50;99.90
8595;DHT22;4335;48.860;9.198;2022-09-03T05:42:04;17.60;99.90
8595;DHT22;4335;48.860;9.198;2022-09-03T05:44:32;17.70;99.90
8595;DHT22;4335;48.860;9.198;2022-09-03T05:47:04;17.80;99.90
8595;DHT22;4335;48.860;9.198;2022-09-03T05:49:35;18.00;99.90
8595;DHT22;4335;48.860;9.198;2022-09-03T05:52:06;18.20;99.90
8595;DHT22;4335;48.860;9.198;2022-09-03T05:54:34;18.30;99.90
8595;DHT22;4335;48.860;9.198;2022-09-03T05:57:02;18.50;99.90
8595;DHT22;4335;48.860;9.198;2022-09-03T05:59:29;18.80;99.90
8595;DHT22;4335;48.860;9.198;2022-09-03T06:01:57;19.00;99.90
8595;DHT22;4335;48.860;9.198;2022-09-03T06:04:32;19.00;99.90
8595;DHT22;4335;48.860;9.198;2022-09-03T06:07:00;18.90;99.90
8595;DHT22;4335;48.860;9.198;2022-09-03T06:09:27;18.80;99.90
8595;DHT22;4335;48.860;9.198;2022-09-03T06:12:02;18.70;99.90
8595;DHT22;4335;48.860;9.198;2022-09-03T06:14:29;18.60;99.90
8595;DHT22;4335;48.860;9.198;2022-09-03T06:16:57;18.50;99.90
8595;DHT22;4335;48.860;9.198;2022-09-03T06:19:24;18.50;99.90
8595;DHT22;4335;48.860;9.198;2022-09-03T06:21:53;18.60;99.90
8595;DHT22;4335;48.860;9.198;2022-09-03T06:24:21;18.60;99.90
8595;DHT22;4335;48.860;9.198;2022-09-03T06:26:51;18.50;99.90
8595;DHT22;4335;48.860;9.198;2022-09-03T06:29:19;18.50;99.90
8595;DHT22;4335;48.860;9.198;2022-09-03T06:31:46;18.40;99.90
8595;DHT22;4335;48.860;9.198;2022-09-03T06:34:18;18.40;99.90
8595;DHT22;4335;48.860;9.198;2022-09-03T06:36:50;18.30;99.90
8595;DHT22;4335;48.860;9.198;2022-09-03T06:39:21;18.30;99.90
8595;DHT22;4335;48.860;9.198;2022-09-03T06:41:50;18.30;99.90
8595;DHT22;4335;48.860;9.198;2022-09-03T06:44:21;18.30;99.90
8595;DHT22;4335;48.860;9.198;2022-09-03T06:46:51;18.40;99.90
8595;DHT22;4335;48.860;9.198;2022-09-03T06:49:22;18.40;99.90
8595;DHT22;4335;48.860;9.198;2022-09-03T06:51:57;18.40;99.90
8595;DHT22;4335;48.860;9.198;2022-09-03T06:54:29;18.40;99.90
8595;DHT22;4335;48.860;9.198;2022-09-03T06:56:56;18.40;99.90
8595;DHT22;4335;48.860;9.198;2022-09-03T06:59:26;18.50;99.90
8595;DHT22;4335;48.860;9.198;2022-09-03T07:01:54;18.50;99.90
8595;DHT22;4335;48.860;9.198;2022-09-03T07:04:22;18.60;99.90
8595;DHT22;4335;48.860;9.198;2022-09-03T07:06:55;18.70;99.90
8595;DHT22;4335;48.860;9.198;2022-09-03T07:09:22;18.80;99.90
8595;DHT22;4335;48.860;9.198;2022-09-03T07:11:52;18.90;99.90
8595;DHT22;4335;48.860;9.198;2022-09-03T07:14:20;19.00;99.90
8595;DHT22;4335;48.860;9.198;2022-09-03T07:16:48;19.10;99.90
8595;DHT22;4335;48.860;9.198;2022-09-03T07:19:19;19.20;99.90
8595;DHT22;4335;48.860;9.198;2022-09-03T07:21:46;19.30;99.90
8595;DHT22;4335;48.860;9.198;2022-09-03T07:24:13;19.40;99.90
8595;DHT22;4335;48.860;9.198;2022-09-03T07:26:41;19.50;99.90
8595;DHT22;4335;48.860;9.198;2022-09-03T07:29:15;19.60;99.90
8595;DHT22;4335;48.860;9.198;2022-09-03T07:31:44;19.70;99.90
8595;DHT22;4335;48.860;9.198;2022-09-03T07:34:13;19.80;99.90
8595;DHT22;4335;48.860;9.198;2022-09-03T07:36:42;19.90;99.90
8595;DHT22;4335;48.860;9.198;2022-09-03T07:39:13;19.90;99.90
8595;DHT22;4335;48.860;9.198;2022-09-03T07:41:41;19.90;99.90
8595;DHT22;4335;48.860;9.198;2022-09-03T07:44:12;19.90;99.90
8595;DHT22;4335;48.860;9.198;2022-09-03T07:46:42;20.00;99.90
8595;DHT22;4335;48.860;9.198;2022-09-03T07:49:21;20.00;99.90
8595;DHT22;4335;48.860;9.198;2022-09-03T07:51:48;20.00;99.90
8595;DHT22;4335;48.860;9.198;2022-09-03T07:54:22;20.20;99.90
8595;DHT22;4335;48.860;9.198;2022-09-03T07:56:52;20.20;99.90
8595;DHT22;4335;48.860;9.198;2022-09-03T07:59:24;20.40;99.90
8595;DHT22;4335;48.860;9.198;2022-09-03T08:01:55;20.50;99.90
8595;DHT22;4335;48.860;9.198;2022-09-03T08:04:22;20.70;99.90
8595;DHT22;4335;48.860;9.198;2022-09-03T08:06:49;20.90;99.90
8595;DHT22;4335;48.860;9.198;2022-09-03T08:09:20;21.20;99.90
8595;DHT22;4335;48.860;9.198;2022-09-03T08:11:47;21.40;99.90
8595;DHT22;4335;48.860;9.198;2022-09-03T08:14:15;22.00;99.90
8595;DHT22;4335;48.860;9.198;2022-09-03T08:16:45;23.00;99.90
8595;DHT22;4335;48.860;9.198;2022-09-03T08:19:13;23.50;99.90
8595;DHT22;4335;48.860;9.198;2022-09-03T08:21:41;23.80;99.90
8595;DHT22;4335;48.860;9.198;2022-09-03T08:24:08;23.60;99.90
8595;DHT22;4335;48.860;9.198;2022-09-03T08:26:38;23.40;99.90
8595;DHT22;4335;48.860;9.198;2022-09-03T08:29:06;23.40;99.90
8595;DHT22;4335;48.860;9.198;2022-09-03T08:31:34;23.60;99.90
8595;DHT22;4335;48.860;9.198;2022-09-03T08:34:05;24.00;99.90
8595;DHT22;4335;48.860;9.198;2022-09-03T08:36:34;24.30;99.90
8595;DHT22;4335;48.860;9.198;2022-09-03T08:39:03;24.50;99.90
8595;DHT22;4335;48.860;9.198;2022-09-03T08:41:42;24.50;99.90
8595;DHT22;4335;48.860;9.198;2022-09-03T08:44:19;24.50;99.90
8595;DHT22;4335;48.860;9.198;2022-09-03T08:46:58;24.30;99.90
8595;DHT22;4335;48.860;9.198;2022-09-03T08:49:34;24.00;99.90
8595;DHT22;4335;48.860;9.198;2022-09-03T08:52:23;24.00;99.90
8595;DHT22;4335;48.860;9.198;2022-09-03T08:55:05;24.20;99.90
8595;DHT22;4335;48.860;9.198;2022-09-03T08:57:42;24.50;99.90
8595;DHT22;4335;48.860;9.198;2022-09-03T09:00:12;24.80;99.90
8595;DHT22;4335;48.860;9.198;2022-09-03T09:02:55;24.80;99.90
8595;DHT22;4335;48.860;9.198;2022-09-03T09:05:38;24.60;99.90
8595;DHT22;4335;48.860;9.198;2022-09-03T09:08:17;24.30;99.90
8595;DHT22;4335;48.860;9.198;2022-09-03T09:10:48;23.90;99.90
8595;DHT22;4335;48.860;9.198;2022-09-03T09:13:25;23.80;99.90
8595;DHT22;4335;48.860;9.198;2022-09-03T09:15:58;23.70;99.90
8595;DHT22;4335;48.860;9.198;2022-09-03T09:18:41;23.90;99.90
8595;DHT22;4335;48.860;9.198;2022-09-03T09:21:16;23.80;99.90
8595;DHT22;4335;48.860;9.198;2022-09-03T09:23:46;23.70;99.90
8595;DHT22;4335;48.860;9.198;2022-09-03T09:26:16;23.80;99.90
8595;DHT22;4335;48.860;9.198;2022-09-03T09:28:46;24.20;99.90
8595;DHT22;4335;48.860;9.198;2022-09-03T09:31:14;25.00;99.90
8595;DHT22;4335;48.860;9.198;2022-09-03T09:33:43;26.10;99.90
8595;DHT22;4335;48.860;9.198;2022-09-03T09:36:15;27.50;99.90
8595;DHT22;4335;48.860;9.198;2022-09-03T09:38:45;28.30;98.80
8595;DHT22;4335;48.860;9.198;2022-09-03T09:41:15;28.60;96.80
8595;DHT22;4335;48.860;9.198;2022-09-03T09:43:43;28.30;96.20
8595;DHT22;4335;48.860;9.198;2022-09-03T09:46:14;27.60;96.70
8595;DHT22;4335;48.860;9.198;2022-09-03T09:48:49;27.50;97.60
8595;DHT22;4335;48.860;9.198;2022-09-03T09:51:22;26.60;98.20
8595;DHT22;4335;48.860;9.198;2022-09-03T09:54:07;26.40;98.80
8595;DHT22;4335;48.860;9.198;2022-09-03T09:56:42;26.90;98.60
8595;DHT22;4335;48.860;9.198;2022-09-03T09:59:11;27.40;97.50
8595;DHT22;4335;48.860;9.198;2022-09-03T10:01:40;27.40;96.80
8595;DHT22;4335;48.860;9.198;2022-09-03T10:04:10;27.50;96.30
8595;DHT22;4335;48.860;9.198;2022-09-03T10:06:39;27.50;96.20
8595;DHT22;4335;48.860;9.198;2022-09-03T10:09:25;27.50;96.00
8595;DHT22;4335;48.860;9.198;2022-09-03T10:12:01;27.10;96.50
8595;DHT22;4335;48.860;9.198;2022-09-03T10:14:41;26.50;97.70
8595;DHT22;4335;48.860;9.198;2022-09-03T10:17:17;25.70;98.90
8595;DHT22;4335;48.860;9.198;2022-09-03T10:19:54;25.40;99.90
8595;DHT22;4335;48.860;9.198;2022-09-03T10:22:42;26.30;99.90
8595;DHT22;4335;48.860;9.198;2022-09-03T10:25:13;28.00;96.70
8595;DHT22;4335;48.860;9.198;2022-09-03T10:27:41;28.70;95.00
8595;DHT22;4335;48.860;9.198;2022-09-03T10:30:10;29.10;93.30
8595;DHT22;4335;48.860;9.198;2022-09-03T10:32:44;29.30;92.70
8595;DHT22;4335;48.860;9.198;2022-09-03T10:35:20;29.20;92.10
8595;DHT22;4335;48.860;9.198;2022-09-03T10:37:57;28.60;92.50
8595;DHT22;4335;48.860;9.198;2022-09-03T10:40:37;28.30;93.40
8595;DHT22;4335;48.860;9.198;2022-09-03T10:43:24;28.60;93.00
8595;DHT22;4335;48.860;9.198;2022-09-03T10:46:02;29.50;92.30
8595;DHT22;4335;48.860;9.198;2022-09-03T10:48:50;29.70;91.60
8595;DHT22;4335;48.860;9.198;2022-09-03T10:51:24;30.00;90.60
8595;DHT22;4335;48.860;9.198;2022-09-03T10:54:09;30.20;89.60
8595;DHT22;4335;48.860;9.198;2022-09-03T10:56:47;30.30;87.80
8595;DHT22;4335;48.860;9.198;2022-09-03T10:59:37;30.10;87.90
8595;DHT22;4335;48.860;9.198;2022-09-03T11:02:23;29.50;88.90
8595;DHT22;4335;48.860;9.198;2022-09-03T11:04:59;28.80;90.50
8595;DHT22;4335;48.860;9.198;2022-09-03T11:07:33;28.20;91.40
8595;DHT22;4335;48.860;9.198;2022-09-03T11:10:16;27.70;92.60
8595;DHT22;4335;48.860;9.198;2022-09-03T11:12:46;27.30;93.80
8595;DHT22;4335;48.860;9.198;2022-09-03T11:15:23;26.90;94.60
8595;DHT22;4335;48.860;9.198;2022-09-03T11:17:54;26.80;95.20
8595;DHT22;4335;48.860;9.198;2022-09-03T11:20:24;26.50;95.90
8595;DHT22;4335;48.860;9.198;2022-09-03T11:22:54;26.30;96.70
8595;DHT22;4335;48.860;9.198;2022-09-03T11:25:31;25.90;97.20
8595;DHT22;4335;48.860;9.198;2022-09-03T11:28:11;25.60;97.60
8595;DHT22;4335;48.860;9.198;2022-09-03T11:30:55;25.60;98.40
8595;DHT22;4335;48.860;9.198;2022-09-03T11:33:30;25.40;98.80
8595;DHT22;4335;48.860;9.198;2022-09-03T11:36:04;25.10;99.40
8595;DHT22;4335;48.860;9.198;2022-09-03T11:38:32;25.20;99.80
8595;DHT22;4335;48.860;9.198;2022-09-03T11:41:11;25.10;99.90
8595;DHT22;4335;48.860;9.198;2022-09-03T11:43:41;25.10;99.90
8595;DHT22;4335;48.860;9.198;2022-09-03T11:46:11;25.10;99.90
8595;DHT22;4335;48.860;9.198;2022-09-03T11:48:42;25.10;99.90
8595;DHT22;4335;48.860;9.198;2022-09-03T11:51:30;24.90;99.90
8595;DHT22;4335;48.860;9.198;2022-09-03T11:54:00;24.80;99.90
8595;DHT22;4335;48.860;9.198;2022-09-03T11:56:30;24.80;99.90
8595;DHT22;4335;48.860;9.198;2022-09-03T11:59:21;24.70;99.90
8595;DHT22;4335;48.860;9.198;2022-09-03T12:01:51;24.50;99.90
8595;DHT22;4335;48.860;9.198;2022-09-03T12:04:30;24.30;99.90
8595;DHT22;4335;48.860;9.198;2022-09-03T12:07:09;24.10;99.90
8595;DHT22;4335;48.860;9.198;2022-09-03T12:10:10;24.00;99.90
8595;DHT22;4335;48.860;9.198;2022-09-03T12:12:51;23.80;99.90
8595;DHT22;4335;48.860;9.198;2022-09-03T12:15:34;23.60;99.90
8595;DHT22;4335;48.860;9.198;2022-09-03T12:18:07;23.60;99.90
8595;DHT22;4335;48.860;9.198;2022-09-03T12:20:59;23.50;99.90
8595;DHT22;4335;48.860;9.198;2022-09-03T12:23:29;23.30;99.90
8595;DHT22;4335;48.860;9.198;2022-09-03T12:26:04;23.30;99.90
8595;DHT22;4335;48.860;9.198;2022-09-03T12:28:36;23.20;99.90
8595;DHT22;4335;48.860;9.198;2022-09-03T12:31:15;23.10;99.90
8595;DHT22;4335;48.860;9.198;2022-09-03T12:33:51;23.00;99.90
8595;DHT22;4335;48.860;9.198;2022-09-03T12:36:23;23.00;99.90
8595;DHT22;4335;48.860;9.198;2022-09-03T12:38:51;22.90;99.90
8595;DHT22;4335;48.860;9.198;2022-09-03T12:41:28;22.80;99.90
8595;DHT22;4335;48.860;9.198;2022-09-03T12:43:59;22.80;99.90
8595;DHT22;4335;48.860;9.198;2022-09-03T12:46:35;22.70;99.90
8595;DHT22;4335;48.860;9.198;2022-09-03T12:49:04;22.70;99.90
8595;DHT22;4335;48.860;9.198;2022-09-03T12:51:33;22.60;99.90
8595;DHT22;4335;48.860;9.198;2022-09-03T12:54:06;22.60;99.90
8595;DHT22;4335;48.860;9.198;2022-09-03T12:56:40;22.50;99.90
8595;DHT22;4335;48.860;9.198;2022-09-03T12:59:15;22.40;99.90
8595;DHT22;4335;48.860;9.198;2022-09-03T13:01:48;22.20;99.90
8595;DHT22;4335;48.860;9.198;2022-09-03T13:04:19;22.00;99.90
8595;DHT22;4335;48.860;9.198;2022-09-03T13:06:52;21.90;99.90
8595;DHT22;4335;48.860;9.198;2022-09-03T13:09:25;21.70;99.90
8595;DHT22;4335;48.860;9.198;2022-09-03T13:12:01;21.60;99.90
8595;DHT22;4335;48.860;9.198;2022-09-03T13:14:41;21.50;99.90
8595;DHT22;4335;48.860;9.198;2022-09-03T13:17:26;21.40;99.90
8595;DHT22;4335;48.860;9.198;2022-09-03T13:20:10;21.30;99.90
8595;DHT22;4335;48.860;9.198;2022-09-03T13:22:49;21.20;99.90
8595;DHT22;4335;48.860;9.198;2022-09-03T13:25:23;21.20;99.90
8595;DHT22;4335;48.860;9.198;2022-09-03T13:27:58;21.20;99.90
8595;DHT22;4335;48.860;9.198;2022-09-03T13:30:35;21.10;99.90
8595;DHT22;4335;48.860;9.198;2022-09-03T13:33:07;21.00;99.90
8595;DHT22;4335;48.860;9.198;2022-09-03T13:35:39;21.20;99.90
8595;DHT22;4335;48.860;9.198;2022-09-03T13:38:17;21.30;99.90
8595;DHT22;4335;48.860;9.198;2022-09-03T13:40:50;21.50;99.90
8595;DHT22;4335;48.860;9.198;2022-09-03T13:43:28;21.60;99.90
8595;DHT22;4335;48.860;9.198;2022-09-03T13:46:00;21.80;99.90
8595;DHT22;4335;48.860;9.198;2022-09-03T13:48:33;22.10;99.90
8595;DHT22;4335;48.860;9.198;2022-09-03T13:51:22;22.20;99.90
8595;DHT22;4335;48.860;9.198;2022-09-03T13:54:00;22.30;99.90
8595;DHT22;4335;48.860;9.198;2022-09-03T13:56:54;22.30;99.90
8595;DHT22;4335;48.860;9.198;2022-09-03T13:59:32;22.20;99.90
8595;DHT22;4335;48.860;9.198;2022-09-03T14:02:17;22.10;99.90
8595;DHT22;4335;48.860;9.198;2022-09-03T14:05:04;21.90;99.90
8595;DHT22;4335;48.860;9.198;2022-09-03T14:07:50;21.80;99.90
8595;DHT22;4335;48.860;9.198;2022-09-03T14:10:23;21.60;99.90
8595;DHT22;4335;48.860;9.198;2022-09-03T14:13:05;21.60;99.90
8595;DHT22;4335;48.860;9.198;2022-09-03T14:15:40;21.50;99.90
8595;DHT22;4335;48.860;9.198;2022-09-03T14:18:14;21.50;99.90
8595;DHT22;4335;48.860;9.198;2022-09-03T14:20:53;21.50;99.90
8595;DHT22;4335;48.860;9.198;2022-09-03T14:23:28;21.50;99.90
8595;DHT22;4335;48.860;9.198;2022-09-03T14:26:01;21.50;99.90
8595;DHT22;4335;48.860;9.198;2022-09-03T14:28:32;21.40;99.90
8595;DHT22;4335;48.860;9.198;2022-09-03T14:31:10;21.20;99.90
8595;DHT22;4335;48.860;9.198;2022-09-03T14:33:50;21.00;99.90
8595;DHT22;4335;48.860;9.198;2022-09-03T14:36:25;21.00;99.90
8595;DHT22;4335;48.860;9.198;2022-09-03T14:39:16;20.90;99.90
8595;DHT22;4335;48.860;9.198;2022-09-03T14:42:29;20.80;99.90
8595;DHT22;4335;48.860;9.198;2022-09-03T14:45:16;20.70;99.90
8595;DHT22;4335;48.860;9.198;2022-09-03T14:51:00;20.60;99.90
8595;DHT22;4335;48.860;9.198;2022-09-03T14:56:36;20.50;99.90
8595;DHT22;4335;48.860;9.198;2022-09-03T14:59:25;20.40;99.90
8595;DHT22;4335;48.860;9.198;2022-09-03T15:05:08;20.30;99.90
8595;DHT22;4335;48.860;9.198;2022-09-03T15:07:42;20.30;99.90
8595;DHT22;4335;48.860;9.198;2022-09-03T15:10:19;20.30;99.90
8595;DHT22;4335;48.860;9.198;2022-09-03T15:12:52;20.40;99.90
8595;DHT22;4335;48.860;9.198;2022-09-03T15:15:23;20.40;99.90
8595;DHT22;4335;48.860;9.198;2022-09-03T15:18:08;20.40;99.90
8595;DHT22;4335;48.860;9.198;2022-09-03T15:20:48;20.30;99.90
8595;DHT22;4335;48.860;9.198;2022-09-03T15:23:24;20.40;99.90
8595;DHT22;4335;48.860;9.198;2022-09-03T15:26:18;20.40;99.90
8595;DHT22;4335;48.860;9.198;2022-09-03T15:29:08;20.40;99.90
8595;DHT22;4335;48.860;9.198;2022-09-03T15:31:46;20.60;99.90
8595;DHT22;4335;48.860;9.198;2022-09-03T15:34:32;20.80;99.90
8595;DHT22;4335;48.860;9.198;2022-09-03T15:37:09;20.80;99.90
8595;DHT22;4335;48.860;9.198;2022-09-03T15:39:42;20.90;99.90
8595;DHT22;4335;48.860;9.198;2022-09-03T15:42:16;21.00;99.90
8595;DHT22;4335;48.860;9.198;2022-09-03T15:44:50;20.90;99.90
8595;DHT22;4335;48.860;9.198;2022-09-03T15:47:33;20.90;99.90
8595;DHT22;4335;48.860;9.198;2022-09-03T15:50:07;20.80;99.90
8595;DHT22;4335;48.860;9.198;2022-09-03T15:52:46;20.70;99.90
8595;DHT22;4335;48.860;9.198;2022-09-03T15:55:33;20.70;99.90
8595;DHT22;4335;48.860;9.198;2022-09-03T15:58:09;20.70;99.90
8595;DHT22;4335;48.860;9.198;2022-09-03T16:00:55;20.70;99.90
8595;DHT22;4335;48.860;9.198;2022-09-03T16:03:36;20.70;99.90
8595;DHT22;4335;48.860;9.198;2022-09-03T16:06:27;20.60;99.90
8595;DHT22;4335;48.860;9.198;2022-09-03T16:09:07;20.70;99.90
8595;DHT22;4335;48.860;9.198;2022-09-03T16:11:44;20.60;99.90
8595;DHT22;4335;48.860;9.198;2022-09-03T16:14:20;20.60;99.90
8595;DHT22;4335;48.860;9.198;2022-09-03T16:16:58;20.50;99.90
8595;DHT22;4335;48.860;9.198;2022-09-03T16:19:31;20.50;99.90
8595;DHT22;4335;48.860;9.198;2022-09-03T16:22:06;20.50;99.90
8595;DHT22;4335;48.860;9.198;2022-09-03T16:24:42;20.40;99.90
8595;DHT22;4335;48.860;9.198;2022-09-03T16:27:16;20.40;99.90
8595;DHT22;4335;48.860;9.198;2022-09-03T16:29:56;20.50;99.90
8595;DHT22;4335;48.860;9.198;2022-09-03T16:32:33;20.50;99.90
8595;DHT22;4335;48.860;9.198;2022-09-03T16:35:15;20.40;99.90
8595;DHT22;4335;48.860;9.198;2022-09-03T16:37:59;20.40;99.90
8595;DHT22;4335;48.860;9.198;2022-09-03T16:40:33;20.30;99.90
8595;DHT22;4335;48.860;9.198;2022-09-03T16:43:16;20.30;99.90
8595;DHT22;4335;48.860;9.198;2022-09-03T16:45:55;20.30;99.90
8595;DHT22;4335;48.860;9.198;2022-09-03T16:48:33;20.30;99.90
8595;DHT22;4335;48.860;9.198;2022-09-03T16:51:14;20.30;99.90
8595;DHT22;4335;48.860;9.198;2022-09-03T16:53:59;20.40;99.90
8595;DHT22;4335;48.860;9.198;2022-09-03T16:56:45;20.40;99.90
8595;DHT22;4335;48.860;9.198;2022-09-03T16:59:48;20.50;99.90